sensor_id;sensor_type;location;lat;lon;timestamp;P1;durP1;ratioP1;P2;durP2;ratioP2
23317;SDS011;11831;55.918;37.746;2022-12-18T00:00:58;11.23;;;7.75;;
23317;SDS011;11831;55.918;37.746;2022-12-18T00:03:25;11.70;;;7.57;;
23317;SDS011;11831;55.918;37.746;2022-12-18T00:05:52;11.88;;;8.30;;
23317;SDS011;11831;55.918;37.746;2022-12-18T00:08:18;11.02;;;7.78;;
23317;SDS011;11831;55.918;37.746;2022-12-18T00:10:45;11.07;;;7.45;;
23317;SDS011;11831;55.918;37.746;2022-12-18T00:13:12;11.20;;;7.45;;
23317;SDS011;11831;55.918;37.746;2022-12-18T00:15:39;11.88;;;7.70;;
23317;SDS011;11831;55.918;37.746;2022-12-18T00:18:05;23.60;;;7.87;;
23317;SDS011;11831;55.918;37.746;2022-12-18T00:20:36;10.60;;;7.32;;
23317;SDS011;11831;55.918;37.746;2022-12-18T00:23:04;10.23;;;6.87;;
23317;SDS011;11831;55.918;37.746;2022-12-18T00:25:34;20.60;;;8.02;;
23317;SDS011;11831;55.918;37.746;2022-12-18T00:28:02;10.63;;;6.53;;
23317;SDS011;11831;55.918;37.746;2022-12-18T00:30:29;11.20;;;7.43;;
23317;SDS011;11831;55.918;37.746;2022-12-18T00:32:56;8.75;;;5.80;;
23317;SDS011;11831;55.918;37.746;2022-12-18T00:35:24;10.85;;;7.53;;
23317;SDS011;11831;55.918;37.746;2022-12-18T00:37:50;9.68;;;5.80;;
23317;SDS011;11831;55.918;37.746;2022-12-18T00:40:17;10.80;;;6.57;;
23317;SDS011;11831;55.918;37.746;2022-12-18T00:42:43;11.75;;;7.30;;
23317;SDS011;11831;55.918;37.746;2022-12-18T00:45:28;10.70;;;6.82;;
23317;SDS011;11831;55.918;37.746;2022-12-18T00:47:56;13.10;;;7.50;;
23317;SDS011;11831;55.918;37.746;2022-12-18T00:50:23;11.88;;;7.35;;
23317;SDS011;11831;55.918;37.746;2022-12-18T00:52:51;9.55;;;6.25;;
23317;SDS011;11831;55.918;37.746;2022-12-18T00:55:17;9.27;;;6.53;;
23317;SDS011;11831;55.918;37.746;2022-12-18T00:57:44;11.63;;;7.10;;
23317;SDS011;11831;55.918;37.746;2022-12-18T01:00:13;10.25;;;6.85;;
23317;SDS011;11831;55.918;37.746;2022-12-18T01:02:41;8.70;;;6.62;;
23317;SDS011;11831;55.918;37.746;2022-12-18T01:05:08;8.52;;;6.35;;
23317;SDS011;11831;55.918;37.746;2022-12-18T01:07:35;17.45;;;6.65;;
23317;SDS011;11831;55.918;37.746;2022-12-18T01:10:02;9.63;;;6.93;;
23317;SDS011;11831;55.918;37.746;2022-12-18T01:12:29;9.88;;;6.68;;
23317;SDS011;11831;55.918;37.746;2022-12-18T01:14:56;9.35;;;6.62;;
23317;SDS011;11831;55.918;37.746;2022-12-18T01:17:22;12.98;;;6.45;;
23317;SDS011;11831;55.918;37.746;2022-12-18T01:19:49;9.70;;;6.93;;
23317;SDS011;11831;55.918;37.746;2022-12-18T01:22:15;8.90;;;6.47;;
23317;SDS011;11831;55.918;37.746;2022-12-18T01:24:42;10.68;;;7.18;;
23317;SDS011;11831;55.918;37.746;2022-12-18T01:27:08;11.38;;;6.55;;
23317;SDS011;11831;55.918;37.746;2022-12-18T01:29:35;10.40;;;5.45;;
23317;SDS011;11831;55.918;37.746;2022-12-18T01:32:02;10.02;;;6.50;;
23317;SDS011;11831;55.918;37.746;2022-12-18T01:34:28;6.75;;;4.85;;
23317;SDS011;11831;55.918;37.746;2022-12-18T01:36:55;10.10;;;6.30;;
23317;SDS011;11831;55.918;37.746;2022-12-18T01:39:21;11.63;;;6.75;;
23317;SDS011;11831;55.918;37.746;2022-12-18T01:41:48;11.93;;;6.30;;
23317;SDS011;11831;55.918;37.746;2022-12-18T01:47:39;9.93;;;6.43;;
23317;SDS011;11831;55.918;37.746;2022-12-18T01:50:17;7.93;;;5.50;;
23317;SDS011;11831;55.918;37.746;2022-12-18T01:52:48;10.68;;;6.43;;
23317;SDS011;11831;55.918;37.746;2022-12-18T01:55:20;9.63;;;6.50;;
23317;SDS011;11831;55.918;37.746;2022-12-18T01:57:52;8.52;;;5.60;;
23317;SDS011;11831;55.918;37.746;2022-12-18T02:00:21;22.65;;;6.85;;
23317;SDS011;11831;55.918;37.746;2022-12-18T02:02:48;8.90;;;6.10;;
23317;SDS011;11831;55.918;37.746;2022-12-18T02:05:16;8.52;;;6.00;;
23317;SDS011;11831;55.918;37.746;2022-12-18T02:10:20;8.57;;;5.68;;
23317;SDS011;11831;55.918;37.746;2022-12-18T02:12:48;8.68;;;5.82;;
23317;SDS011;11831;55.918;37.746;2022-12-18T02:18:08;9.07;;;6.10;;
23317;SDS011;11831;55.918;37.746;2022-12-18T02:20:45;7.50;;;4.75;;
23317;SDS011;11831;55.918;37.746;2022-12-18T02:23:37;7.12;;;5.03;;
23317;SDS011;11831;55.918;37.746;2022-12-18T02:26:15;8.63;;;5.60;;
23317;SDS011;11831;55.918;37.746;2022-12-18T02:28:58;9.38;;;5.90;;
23317;SDS011;11831;55.918;37.746;2022-12-18T02:31:31;9.55;;;6.37;;
23317;SDS011;11831;55.918;37.746;2022-12-18T02:34:04;10.30;;;6.37;;
23317;SDS011;11831;55.918;37.746;2022-12-18T02:36:34;8.20;;;5.70;;
23317;SDS011;11831;55.918;37.746;2022-12-18T02:39:04;7.80;;;4.90;;
23317;SDS011;11831;55.918;37.746;2022-12-18T02:41:34;9.32;;;6.40;;
23317;SDS011;11831;55.918;37.746;2022-12-18T02:44:06;9.85;;;6.18;;
23317;SDS011;11831;55.918;37.746;2022-12-18T02:46:36;8.20;;;5.95;;
23317;SDS011;11831;55.918;37.746;2022-12-18T02:50:12;9.40;;;5.95;;
23317;SDS011;11831;55.918;37.746;2022-12-18T02:57:44;7.45;;;5.32;;
23317;SDS011;11831;55.918;37.746;2022-12-18T03:00:28;9.15;;;6.00;;
23317;SDS011;11831;55.918;37.746;2022-12-18T03:05:55;8.75;;;5.57;;
23317;SDS011;11831;55.918;37.746;2022-12-18T03:08:27;7.50;;;5.45;;
23317;SDS011;11831;55.918;37.746;2022-12-18T03:11:01;7.20;;;5.35;;
23317;SDS011;11831;55.918;37.746;2022-12-18T03:13:45;8.02;;;5.30;;
23317;SDS011;11831;55.918;37.746;2022-12-18T03:16:20;7.55;;;5.35;;
23317;SDS011;11831;55.918;37.746;2022-12-18T03:18:53;7.65;;;6.07;;
23317;SDS011;11831;55.918;37.746;2022-12-18T03:21:33;7.40;;;5.03;;
23317;SDS011;11831;55.918;37.746;2022-12-18T03:24:13;7.60;;;5.03;;
23317;SDS011;11831;55.918;37.746;2022-12-18T03:26:42;7.32;;;5.45;;
23317;SDS011;11831;55.918;37.746;2022-12-18T03:29:19;8.48;;;5.35;;
23317;SDS011;11831;55.918;37.746;2022-12-18T03:31:51;7.10;;;4.85;;
23317;SDS011;11831;55.918;37.746;2022-12-18T03:34:29;8.10;;;5.78;;
23317;SDS011;11831;55.918;37.746;2022-12-18T03:36:59;8.10;;;5.80;;
23317;SDS011;11831;55.918;37.746;2022-12-18T03:39:26;8.65;;;5.47;;
23317;SDS011;11831;55.918;37.746;2022-12-18T03:41:55;7.72;;;5.75;;
23317;SDS011;11831;55.918;37.746;2022-12-18T03:47:32;8.60;;;5.65;;
23317;SDS011;11831;55.918;37.746;2022-12-18T03:50:27;7.78;;;5.35;;
23317;SDS011;11831;55.918;37.746;2022-12-18T03:55:40;8.25;;;5.53;;
23317;SDS011;11831;55.918;37.746;2022-12-18T03:58:08;7.57;;;5.15;;
23317;SDS011;11831;55.918;37.746;2022-12-18T04:00:37;7.43;;;5.43;;
23317;SDS011;11831;55.918;37.746;2022-12-18T04:03:05;8.15;;;5.22;;
23317;SDS011;11831;55.918;37.746;2022-12-18T04:05:34;7.30;;;5.15;;
23317;SDS011;11831;55.918;37.746;2022-12-18T04:08:02;7.53;;;5.10;;
23317;SDS011;11831;55.918;37.746;2022-12-18T04:10:30;7.87;;;5.50;;
23317;SDS011;11831;55.918;37.746;2022-12-18T04:12:57;7.90;;;5.80;;
23317;SDS011;11831;55.918;37.746;2022-12-18T04:15:24;7.65;;;4.82;;
23317;SDS011;11831;55.918;37.746;2022-12-18T04:17:50;7.12;;;5.20;;
23317;SDS011;11831;55.918;37.746;2022-12-18T04:20:17;9.57;;;5.40;;
23317;SDS011;11831;55.918;37.746;2022-12-18T04:22:43;14.45;;;5.40;;
23317;SDS011;11831;55.918;37.746;2022-12-18T04:25:10;9.05;;;5.62;;
23317;SDS011;11831;55.918;37.746;2022-12-18T04:27:38;7.25;;;4.95;;
23317;SDS011;11831;55.918;37.746;2022-12-18T04:30:05;23.02;;;6.40;;
23317;SDS011;11831;55.918;37.746;2022-12-18T04:32:35;20.30;;;5.93;;
23317;SDS011;11831;55.918;37.746;2022-12-18T04:35:02;11.35;;;6.00;;
23317;SDS011;11831;55.918;37.746;2022-12-18T04:37:30;7.65;;;5.40;;
23317;SDS011;11831;55.918;37.746;2022-12-18T04:39:56;8.68;;;5.93;;
23317;SDS011;11831;55.918;37.746;2022-12-18T04:42:23;7.65;;;5.60;;
23317;SDS011;11831;55.918;37.746;2022-12-18T04:44:49;6.03;;;4.70;;
23317;SDS011;11831;55.918;37.746;2022-12-18T04:47:16;8.38;;;5.03;;
23317;SDS011;11831;55.918;37.746;2022-12-18T04:49:42;10.15;;;4.82;;
23317;SDS011;11831;55.918;37.746;2022-12-18T04:52:08;7.82;;;5.65;;
23317;SDS011;11831;55.918;37.746;2022-12-18T04:54:35;6.85;;;4.97;;
23317;SDS011;11831;55.918;37.746;2022-12-18T04:57:01;8.25;;;5.95;;
23317;SDS011;11831;55.918;37.746;2022-12-18T04:59:28;7.37;;;5.18;;
23317;SDS011;11831;55.918;37.746;2022-12-18T05:01:54;9.00;;;5.10;;
23317;SDS011;11831;55.918;37.746;2022-12-18T05:04:20;10.85;;;5.57;;
23317;SDS011;11831;55.918;37.746;2022-12-18T05:06:47;6.90;;;5.53;;
23317;SDS011;11831;55.918;37.746;2022-12-18T05:09:13;8.18;;;5.20;;
23317;SDS011;11831;55.918;37.746;2022-12-18T05:11:40;11.82;;;6.15;;
23317;SDS011;11831;55.918;37.746;2022-12-18T05:14:06;8.02;;;5.87;;
23317;SDS011;11831;55.918;37.746;2022-12-18T05:16:33;7.50;;;5.50;;
23317;SDS011;11831;55.918;37.746;2022-12-18T05:18:59;8.35;;;5.20;;
23317;SDS011;11831;55.918;37.746;2022-12-18T05:21:26;10.57;;;5.72;;
23317;SDS011;11831;55.918;37.746;2022-12-18T05:23:52;7.57;;;5.68;;
23317;SDS011;11831;55.918;37.746;2022-12-18T05:26:19;9.10;;;5.62;;
23317;SDS011;11831;55.918;37.746;2022-12-18T05:28:45;9.55;;;5.93;;
23317;SDS011;11831;55.918;37.746;2022-12-18T05:31:12;8.32;;;5.53;;
23317;SDS011;11831;55.918;37.746;2022-12-18T05:33:39;7.82;;;5.32;;
23317;SDS011;11831;55.918;37.746;2022-12-18T05:36:06;9.05;;;5.87;;
23317;SDS011;11831;55.918;37.746;2022-12-18T05:38:34;16.27;;;5.72;;
23317;SDS011;11831;55.918;37.746;2022-12-18T05:41:02;7.65;;;5.95;;
23317;SDS011;11831;55.918;37.746;2022-12-18T05:43:30;10.05;;;6.07;;
23317;SDS011;11831;55.918;37.746;2022-12-18T05:45:56;8.48;;;5.32;;
23317;SDS011;11831;55.918;37.746;2022-12-18T05:48:23;10.95;;;6.32;;
23317;SDS011;11831;55.918;37.746;2022-12-18T05:50:50;10.43;;;5.43;;
23317;SDS011;11831;55.918;37.746;2022-12-18T05:53:17;9.50;;;5.45;;
23317;SDS011;11831;55.918;37.746;2022-12-18T05:55:45;7.82;;;5.65;;
23317;SDS011;11831;55.918;37.746;2022-12-18T05:58:12;8.55;;;5.95;;
23317;SDS011;11831;55.918;37.746;2022-12-18T06:00:40;10.38;;;5.75;;
23317;SDS011;11831;55.918;37.746;2022-12-18T06:03:09;7.70;;;5.70;;
23317;SDS011;11831;55.918;37.746;2022-12-18T06:05:38;8.50;;;5.50;;
23317;SDS011;11831;55.918;37.746;2022-12-18T06:08:06;7.70;;;5.10;;
23317;SDS011;11831;55.918;37.746;2022-12-18T06:10:33;8.55;;;6.15;;
23317;SDS011;11831;55.918;37.746;2022-12-18T06:12:59;7.62;;;5.00;;
23317;SDS011;11831;55.918;37.746;2022-12-18T06:15:26;7.30;;;5.32;;
23317;SDS011;11831;55.918;37.746;2022-12-18T06:17:53;9.02;;;6.32;;
23317;SDS011;11831;55.918;37.746;2022-12-18T06:20:19;7.53;;;5.22;;
23317;SDS011;11831;55.918;37.746;2022-12-18T06:22:46;7.45;;;4.78;;
23317;SDS011;11831;55.918;37.746;2022-12-18T06:25:12;7.72;;;5.20;;
23317;SDS011;11831;55.918;37.746;2022-12-18T06:27:39;10.20;;;5.80;;
23317;SDS011;11831;55.918;37.746;2022-12-18T06:30:06;7.87;;;5.25;;
23317;SDS011;11831;55.918;37.746;2022-12-18T06:32:33;8.32;;;5.78;;
23317;SDS011;11831;55.918;37.746;2022-12-18T06:35:00;6.10;;;4.32;;
23317;SDS011;11831;55.918;37.746;2022-12-18T06:37:30;9.32;;;5.37;;
23317;SDS011;11831;55.918;37.746;2022-12-18T06:39:57;7.30;;;5.15;;
23317;SDS011;11831;55.918;37.746;2022-12-18T06:42:23;8.38;;;5.47;;
23317;SDS011;11831;55.918;37.746;2022-12-18T06:44:50;9.68;;;5.70;;
23317;SDS011;11831;55.918;37.746;2022-12-18T06:47:17;8.00;;;5.68;;
23317;SDS011;11831;55.918;37.746;2022-12-18T06:49:44;18.60;;;6.45;;
23317;SDS011;11831;55.918;37.746;2022-12-18T06:52:10;8.60;;;5.87;;
23317;SDS011;11831;55.918;37.746;2022-12-18T06:54:37;8.65;;;5.95;;
23317;SDS011;11831;55.918;37.746;2022-12-18T06:57:03;7.65;;;5.75;;
23317;SDS011;11831;55.918;37.746;2022-12-18T06:59:30;8.80;;;6.50;;
23317;SDS011;11831;55.918;37.746;2022-12-18T07:01:56;11.20;;;6.10;;
23317;SDS011;11831;55.918;37.746;2022-12-18T07:04:27;9.65;;;6.25;;
23317;SDS011;11831;55.918;37.746;2022-12-18T07:06:56;13.43;;;5.72;;
23317;SDS011;11831;55.918;37.746;2022-12-18T07:09:23;8.57;;;5.50;;
23317;SDS011;11831;55.918;37.746;2022-12-18T07:11:50;8.02;;;5.00;;
23317;SDS011;11831;55.918;37.746;2022-12-18T07:14:16;6.97;;;4.68;;
23317;SDS011;11831;55.918;37.746;2022-12-18T07:16:43;7.25;;;4.72;;
23317;SDS011;11831;55.918;37.746;2022-12-18T07:19:09;8.65;;;5.45;;
23317;SDS011;11831;55.918;37.746;2022-12-18T07:21:35;9.32;;;5.62;;
23317;SDS011;11831;55.918;37.746;2022-12-18T07:24:02;7.87;;;5.10;;
23317;SDS011;11831;55.918;37.746;2022-12-18T07:26:29;7.00;;;5.22;;
23317;SDS011;11831;55.918;37.746;2022-12-18T07:28:56;9.07;;;5.53;;
23317;SDS011;11831;55.918;37.746;2022-12-18T07:31:23;8.80;;;5.50;;
23317;SDS011;11831;55.918;37.746;2022-12-18T07:33:51;8.30;;;5.53;;
23317;SDS011;11831;55.918;37.746;2022-12-18T07:36:18;8.95;;;6.50;;
23317;SDS011;11831;55.918;37.746;2022-12-18T07:38:49;6.80;;;4.40;;
23317;SDS011;11831;55.918;37.746;2022-12-18T07:41:17;9.07;;;5.32;;
23317;SDS011;11831;55.918;37.746;2022-12-18T07:43:44;7.55;;;5.30;;
23317;SDS011;11831;55.918;37.746;2022-12-18T07:46:11;8.15;;;5.10;;
23317;SDS011;11831;55.918;37.746;2022-12-18T07:48:42;7.37;;;5.37;;
23317;SDS011;11831;55.918;37.746;2022-12-18T07:51:10;6.00;;;4.57;;
23317;SDS011;11831;55.918;37.746;2022-12-18T07:53:38;7.45;;;5.10;;
23317;SDS011;11831;55.918;37.746;2022-12-18T07:56:06;7.10;;;4.80;;
23317;SDS011;11831;55.918;37.746;2022-12-18T07:58:37;9.30;;;5.07;;
23317;SDS011;11831;55.918;37.746;2022-12-18T08:01:08;8.68;;;5.47;;
23317;SDS011;11831;55.918;37.746;2022-12-18T08:03:36;6.55;;;4.55;;
23317;SDS011;11831;55.918;37.746;2022-12-18T08:06:05;8.15;;;5.62;;
23317;SDS011;11831;55.918;37.746;2022-12-18T08:08:32;8.98;;;6.00;;
23317;SDS011;11831;55.918;37.746;2022-12-18T08:10:59;11.73;;;5.93;;
23317;SDS011;11831;55.918;37.746;2022-12-18T08:13:28;7.93;;;4.87;;
23317;SDS011;11831;55.918;37.746;2022-12-18T08:15:55;8.55;;;5.68;;
23317;SDS011;11831;55.918;37.746;2022-12-18T08:18:26;9.10;;;5.68;;
23317;SDS011;11831;55.918;37.746;2022-12-18T08:20:53;8.55;;;5.57;;
23317;SDS011;11831;55.918;37.746;2022-12-18T08:23:20;7.53;;;4.97;;
23317;SDS011;11831;55.918;37.746;2022-12-18T08:25:47;7.03;;;4.85;;
23317;SDS011;11831;55.918;37.746;2022-12-18T08:28:13;10.18;;;4.72;;
23317;SDS011;11831;55.918;37.746;2022-12-18T08:30:40;7.18;;;5.32;;
23317;SDS011;11831;55.918;37.746;2022-12-18T08:33:06;7.12;;;4.65;;
23317;SDS011;11831;55.918;37.746;2022-12-18T08:35:36;8.25;;;4.22;;
23317;SDS011;11831;55.918;37.746;2022-12-18T08:38:02;7.05;;;5.18;;
23317;SDS011;11831;55.918;37.746;2022-12-18T08:40:29;5.25;;;3.78;;
23317;SDS011;11831;55.918;37.746;2022-12-18T08:42:55;6.32;;;4.47;;
23317;SDS011;11831;55.918;37.746;2022-12-18T08:45:40;5.95;;;4.45;;
23317;SDS011;11831;55.918;37.746;2022-12-18T08:48:06;4.45;;;3.58;;
23317;SDS011;11831;55.918;37.746;2022-12-18T08:50:33;5.47;;;4.03;;
23317;SDS011;11831;55.918;37.746;2022-12-18T08:53:00;5.60;;;4.30;;
23317;SDS011;11831;55.918;37.746;2022-12-18T08:55:26;5.85;;;4.37;;
23317;SDS011;11831;55.918;37.746;2022-12-18T08:57:53;7.20;;;4.72;;
23317;SDS011;11831;55.918;37.746;2022-12-18T09:00:19;5.95;;;4.40;;
23317;SDS011;11831;55.918;37.746;2022-12-18T09:02:46;5.72;;;4.20;;
23317;SDS011;11831;55.918;37.746;2022-12-18T09:05:12;6.45;;;4.50;;
23317;SDS011;11831;55.918;37.746;2022-12-18T09:07:38;17.08;;;5.00;;
23317;SDS011;11831;55.918;37.746;2022-12-18T09:10:05;6.82;;;4.45;;
23317;SDS011;11831;55.918;37.746;2022-12-18T09:12:32;9.90;;;5.30;;
23317;SDS011;11831;55.918;37.746;2022-12-18T09:14:58;5.43;;;3.92;;
23317;SDS011;11831;55.918;37.746;2022-12-18T09:17:25;7.68;;;4.78;;
23317;SDS011;11831;55.918;37.746;2022-12-18T09:19:52;5.80;;;4.43;;
23317;SDS011;11831;55.918;37.746;2022-12-18T09:22:18;8.48;;;3.78;;
23317;SDS011;11831;55.918;37.746;2022-12-18T09:24:45;4.57;;;3.10;;
23317;SDS011;11831;55.918;37.746;2022-12-18T09:27:14;5.50;;;4.03;;
23317;SDS011;11831;55.918;37.746;2022-12-18T09:29:41;5.72;;;4.28;;
23317;SDS011;11831;55.918;37.746;2022-12-18T09:32:08;5.50;;;3.92;;
23317;SDS011;11831;55.918;37.746;2022-12-18T09:34:35;5.40;;;3.80;;
23317;SDS011;11831;55.918;37.746;2022-12-18T09:37:01;5.53;;;4.10;;
23317;SDS011;11831;55.918;37.746;2022-12-18T09:39:28;4.82;;;3.22;;
23317;SDS011;11831;55.918;37.746;2022-12-18T09:41:55;6.03;;;4.05;;
23317;SDS011;11831;55.918;37.746;2022-12-18T09:47:10;5.62;;;3.72;;
23317;SDS011;11831;55.918;37.746;2022-12-18T09:49:45;6.75;;;3.60;;
23317;SDS011;11831;55.918;37.746;2022-12-18T09:52:28;5.03;;;3.47;;
23317;SDS011;11831;55.918;37.746;2022-12-18T09:55:01;5.97;;;3.65;;
23317;SDS011;11831;55.918;37.746;2022-12-18T09:57:37;5.68;;;3.28;;
23317;SDS011;11831;55.918;37.746;2022-12-18T10:00:15;6.30;;;4.05;;
23317;SDS011;11831;55.918;37.746;2022-12-18T10:02:46;8.00;;;4.68;;
23317;SDS011;11831;55.918;37.746;2022-12-18T10:05:18;4.68;;;3.42;;
23317;SDS011;11831;55.918;37.746;2022-12-18T10:07:57;4.72;;;3.72;;
23317;SDS011;11831;55.918;37.746;2022-12-18T10:18:35;5.60;;;3.90;;
23317;SDS011;11831;55.918;37.746;2022-12-18T10:23:47;5.12;;;3.78;;
23317;SDS011;11831;55.918;37.746;2022-12-18T10:26:25;7.05;;;4.07;;
23317;SDS011;11831;55.918;37.746;2022-12-18T10:28:52;5.03;;;4.12;;
23317;SDS011;11831;55.918;37.746;2022-12-18T10:31:21;11.98;;;4.05;;
23317;SDS011;11831;55.918;37.746;2022-12-18T10:33:51;6.55;;;4.50;;
23317;SDS011;11831;55.918;37.746;2022-12-18T10:36:23;4.82;;;3.50;;
23317;SDS011;11831;55.918;37.746;2022-12-18T10:38:50;7.30;;;4.25;;
23317;SDS011;11831;55.918;37.746;2022-12-18T10:44:11;7.07;;;4.03;;
23317;SDS011;11831;55.918;37.746;2022-12-18T10:47:02;5.32;;;3.90;;
23317;SDS011;11831;55.918;37.746;2022-12-18T10:49:33;6.40;;;3.97;;
23317;SDS011;11831;55.918;37.746;2022-12-18T10:52:13;4.75;;;2.90;;
23317;SDS011;11831;55.918;37.746;2022-12-18T10:55:03;5.90;;;2.97;;
23317;SDS011;11831;55.918;37.746;2022-12-18T10:57:34;7.57;;;3.12;;
23317;SDS011;11831;55.918;37.746;2022-12-18T11:03:01;6.07;;;3.45;;
23317;SDS011;11831;55.918;37.746;2022-12-18T11:05:32;6.22;;;3.70;;
23317;SDS011;11831;55.918;37.746;2022-12-18T11:08:00;3.60;;;3.08;;
23317;SDS011;11831;55.918;37.746;2022-12-18T11:10:46;10.35;;;3.90;;
23317;SDS011;11831;55.918;37.746;2022-12-18T11:13:22;6.40;;;3.67;;
23317;SDS011;11831;55.918;37.746;2022-12-18T11:16:02;11.32;;;3.53;;
23317;SDS011;11831;55.918;37.746;2022-12-18T11:18:33;6.05;;;3.50;;
23317;SDS011;11831;55.918;37.746;2022-12-18T11:21:07;6.00;;;3.92;;
23317;SDS011;11831;55.918;37.746;2022-12-18T11:23:36;4.80;;;3.22;;
23317;SDS011;11831;55.918;37.746;2022-12-18T11:26:10;6.80;;;4.30;;
23317;SDS011;11831;55.918;37.746;2022-12-18T11:28:38;6.05;;;3.70;;
23317;SDS011;11831;55.918;37.746;2022-12-18T11:31:22;4.95;;;3.55;;
23317;SDS011;11831;55.918;37.746;2022-12-18T11:33:56;7.65;;;4.12;;
23317;SDS011;11831;55.918;37.746;2022-12-18T11:36:24;6.40;;;3.95;;
23317;SDS011;11831;55.918;37.746;2022-12-18T11:38:55;5.75;;;3.60;;
23317;SDS011;11831;55.918;37.746;2022-12-18T11:44:58;5.70;;;3.10;;
23317;SDS011;11831;55.918;37.746;2022-12-18T11:50:33;4.40;;;3.10;;
23317;SDS011;11831;55.918;37.746;2022-12-18T11:53:16;5.80;;;4.30;;
23317;SDS011;11831;55.918;37.746;2022-12-18T11:55:49;5.40;;;3.97;;
23317;SDS011;11831;55.918;37.746;2022-12-18T11:58:46;5.90;;;4.30;;
23317;SDS011;11831;55.918;37.746;2022-12-18T12:01:23;4.62;;;3.58;;
23317;SDS011;11831;55.918;37.746;2022-12-18T12:10:02;4.40;;;2.92;;
23317;SDS011;11831;55.918;37.746;2022-12-18T12:21:21;7.47;;;3.83;;
23317;SDS011;11831;55.918;37.746;2022-12-18T12:29:41;6.10;;;2.72;;
23317;SDS011;11831;55.918;37.746;2022-12-18T12:40:49;7.28;;;3.78;;
23317;SDS011;11831;55.918;37.746;2022-12-18T12:43:22;6.03;;;3.40;;
23317;SDS011;11831;55.918;37.746;2022-12-18T12:46:11;10.75;;;2.70;;
23317;SDS011;11831;55.918;37.746;2022-12-18T12:51:19;5.37;;;3.30;;
23317;SDS011;11831;55.918;37.746;2022-12-18T12:53:55;4.80;;;3.37;;
23317;SDS011;11831;55.918;37.746;2022-12-18T12:56:24;5.03;;;3.08;;
23317;SDS011;11831;55.918;37.746;2022-12-18T13:02:35;4.45;;;3.28;;
23317;SDS011;11831;55.918;37.746;2022-12-18T13:05:18;4.10;;;2.65;;
23317;SDS011;11831;55.918;37.746;2022-12-18T13:07:54;5.93;;;2.53;;
23317;SDS011;11831;55.918;37.746;2022-12-18T13:10:28;4.82;;;2.70;;
23317;SDS011;11831;55.918;37.746;2022-12-18T13:13:00;4.95;;;3.05;;
23317;SDS011;11831;55.918;37.746;2022-12-18T13:25:54;8.35;;;4.82;;
23317;SDS011;11831;55.918;37.746;2022-12-18T13:31:15;8.20;;;5.57;;
23317;SDS011;11831;55.918;37.746;2022-12-18T13:36:43;14.50;;;6.78;;
23317;SDS011;11831;55.918;37.746;2022-12-18T13:39:31;22.65;;;6.53;;
23317;SDS011;11831;55.918;37.746;2022-12-18T13:44:55;14.55;;;7.50;;
23317;SDS011;11831;55.918;37.746;2022-12-18T13:47:32;14.50;;;7.65;;
23317;SDS011;11831;55.918;37.746;2022-12-18T13:50:18;17.42;;;7.25;;
23317;SDS011;11831;55.918;37.746;2022-12-18T13:52:48;25.23;;;7.55;;
23317;SDS011;11831;55.918;37.746;2022-12-18T13:55:18;14.13;;;7.18;;
23317;SDS011;11831;55.918;37.746;2022-12-18T13:57:46;17.15;;;8.65;;
23317;SDS011;11831;55.918;37.746;2022-12-18T14:02:45;16.10;;;8.55;;
23317;SDS011;11831;55.918;37.746;2022-12-18T14:05:27;17.80;;;9.05;;
23317;SDS011;11831;55.918;37.746;2022-12-18T14:08:00;16.98;;;8.25;;
23317;SDS011;11831;55.918;37.746;2022-12-18T14:10:31;15.20;;;8.27;;
23317;SDS011;11831;55.918;37.746;2022-12-18T14:12:58;14.43;;;7.55;;
23317;SDS011;11831;55.918;37.746;2022-12-18T14:15:33;16.20;;;7.53;;
23317;SDS011;11831;55.918;37.746;2022-12-18T14:18:01;16.33;;;8.55;;
23317;SDS011;11831;55.918;37.746;2022-12-18T14:20:39;14.98;;;8.18;;
23317;SDS011;11831;55.918;37.746;2022-12-18T14:28:46;15.40;;;7.85;;
23317;SDS011;11831;55.918;37.746;2022-12-18T14:31:20;9.77;;;5.95;;
23317;SDS011;11831;55.918;37.746;2022-12-18T14:33:48;9.48;;;5.93;;
23317;SDS011;11831;55.918;37.746;2022-12-18T14:36:16;10.10;;;6.20;;
23317;SDS011;11831;55.918;37.746;2022-12-18T14:38:55;10.27;;;5.55;;
23317;SDS011;11831;55.918;37.746;2022-12-18T14:41:23;9.30;;;5.20;;
23317;SDS011;11831;55.918;37.746;2022-12-18T14:43:51;8.95;;;5.32;;
23317;SDS011;11831;55.918;37.746;2022-12-18T14:46:30;8.77;;;5.37;;
23317;SDS011;11831;55.918;37.746;2022-12-18T14:49:17;7.70;;;5.15;;
23317;SDS011;11831;55.918;37.746;2022-12-18T14:51:57;8.63;;;5.00;;
23317;SDS011;11831;55.918;37.746;2022-12-18T14:54:27;6.65;;;4.40;;
23317;SDS011;11831;55.918;37.746;2022-12-18T14:59:30;7.70;;;5.03;;
23317;SDS011;11831;55.918;37.746;2022-12-18T15:02:18;6.80;;;4.57;;
23317;SDS011;11831;55.918;37.746;2022-12-18T15:05:34;5.40;;;3.80;;
23317;SDS011;11831;55.918;37.746;2022-12-18T15:07:48;6.40;;;3.47;;
23317;SDS011;11831;55.918;37.746;2022-12-18T15:10:18;5.70;;;3.78;;
23317;SDS011;11831;55.918;37.746;2022-12-18T15:12:46;11.15;;;4.12;;
23317;SDS011;11831;55.918;37.746;2022-12-18T15:20:41;8.95;;;5.32;;
23317;SDS011;11831;55.918;37.746;2022-12-18T15:25:58;6.60;;;2.97;;
23317;SDS011;11831;55.918;37.746;2022-12-18T15:28:26;6.18;;;3.87;;
23317;SDS011;11831;55.918;37.746;2022-12-18T15:33:41;6.15;;;4.03;;
23317;SDS011;11831;55.918;37.746;2022-12-18T15:36:13;5.50;;;3.95;;
23317;SDS011;11831;55.918;37.746;2022-12-18T15:38:41;6.20;;;3.75;;
23317;SDS011;11831;55.918;37.746;2022-12-18T15:41:15;5.75;;;3.70;;
23317;SDS011;11831;55.918;37.746;2022-12-18T15:43:48;5.03;;;3.58;;
23317;SDS011;11831;55.918;37.746;2022-12-18T15:46:17;5.65;;;3.95;;
23317;SDS011;11831;55.918;37.746;2022-12-18T15:48:55;3.87;;;3.05;;
23317;SDS011;11831;55.918;37.746;2022-12-18T15:51:32;5.65;;;3.97;;
23317;SDS011;11831;55.918;37.746;2022-12-18T15:54:02;7.35;;;3.60;;
23317;SDS011;11831;55.918;37.746;2022-12-18T15:56:30;5.53;;;3.78;;
23317;SDS011;11831;55.918;37.746;2022-12-18T15:59:19;4.53;;;3.58;;
23317;SDS011;11831;55.918;37.746;2022-12-18T16:01:48;4.37;;;3.17;;
23317;SDS011;11831;55.918;37.746;2022-12-18T16:04:17;4.90;;;3.60;;
23317;SDS011;11831;55.918;37.746;2022-12-18T16:06:48;5.40;;;3.42;;
23317;SDS011;11831;55.918;37.746;2022-12-18T16:09:15;5.45;;;3.72;;
23317;SDS011;11831;55.918;37.746;2022-12-18T16:11:41;5.35;;;3.50;;
23317;SDS011;11831;55.918;37.746;2022-12-18T16:16:51;6.07;;;3.65;;
23317;SDS011;11831;55.918;37.746;2022-12-18T16:19:28;5.28;;;3.78;;
23317;SDS011;11831;55.918;37.746;2022-12-18T16:21:56;6.22;;;3.97;;
23317;SDS011;11831;55.918;37.746;2022-12-18T16:24:24;6.82;;;4.50;;
23317;SDS011;11831;55.918;37.746;2022-12-18T16:26:56;6.37;;;4.03;;
23317;SDS011;11831;55.918;37.746;2022-12-18T16:29:25;6.20;;;4.25;;
23317;SDS011;11831;55.918;37.746;2022-12-18T16:31:57;5.50;;;4.00;;
23317;SDS011;11831;55.918;37.746;2022-12-18T16:34:27;7.20;;;4.12;;
23317;SDS011;11831;55.918;37.746;2022-12-18T16:36:59;6.40;;;4.20;;
23317;SDS011;11831;55.918;37.746;2022-12-18T16:39:27;5.57;;;4.20;;
23317;SDS011;11831;55.918;37.746;2022-12-18T16:41:53;4.90;;;3.92;;
23317;SDS011;11831;55.918;37.746;2022-12-18T16:44:21;6.97;;;4.47;;
23317;SDS011;11831;55.918;37.746;2022-12-18T16:46:49;5.90;;;3.45;;
23317;SDS011;11831;55.918;37.746;2022-12-18T16:49:16;5.82;;;3.70;;
23317;SDS011;11831;55.918;37.746;2022-12-18T16:51:45;5.55;;;4.40;;
23317;SDS011;11831;55.918;37.746;2022-12-18T16:54:12;6.57;;;4.30;;
23317;SDS011;11831;55.918;37.746;2022-12-18T16:56:38;8.82;;;5.32;;